Station Historical Data
Daily Summary for October 12, 2017 Units:  English    Metric   Both
« Previous Day
Next Day »
Daily Weekly Monthly Yearly Custom
  High: Low: Average:
Temperature: 65.6 °F 58.4 °F 62 °F
Dew Point: 64.6 °F 54.8 °F 60 °F
Humidity: 98 % 85 % 94 %
Wind Speed: 8.0 mph 0.0 mph 1 mph
Wind Gust: 17.0 mph - -
Wind:- - SE
Pressure: 30.36 in 30.06 in -
Precipitation: 0.69 in    
Historical Graphs
 
 
Tabular Data for October 12, 2017
Time Temperature Dew Point Pressure Wind Wind Speed Wind Gust Humidity Rainfall Rate (Hourly)
00:01 65.6 °F 64.4 °F 30.06 in East 5.0 mph 7.0 mph 96 % 0.00 in
00:06 65.5 °F 64.3 °F 30.06 in Calm   7.0 mph 96 % 0.01 in
00:11 65.5 °F 64.3 °F 30.07 in Calm   7.0 mph 96 % 0.01 in
00:16 65.4 °F 64.2 °F 30.07 in Calm   5.0 mph 96 % 0.01 in
00:21 65.4 °F 64.5 °F 30.07 in Calm   5.0 mph 97 % 0.01 in
00:26 65.4 °F 64.5 °F 30.06 in ESE 3.0 mph 5.0 mph 97 % 0.02 in
00:31 65.4 °F 64.5 °F 30.07 in Calm   5.0 mph 97 % 0.03 in
00:36 65.3 °F 64.4 °F 30.07 in Calm   5.0 mph 97 % 0.04 in
00:41 65.3 °F 64.4 °F 30.08 in Calm   4.0 mph 97 % 0.06 in
00:46 65.3 °F 64.4 °F 30.08 in Calm   3.0 mph 97 % 0.15 in
00:51 65.3 °F 64.4 °F 30.08 in Calm   2.0 mph 97 % 0.20 in
00:56 65.3 °F 64.4 °F 30.08 in Calm   2.0 mph 97 % 0.24 in
01:01 65.2 °F 64.3 °F 30.08 in Calm   2.0 mph 97 % 0.28 in
01:06 65.2 °F 64.3 °F 30.09 in Calm   2.0 mph 97 % 0.33 in
01:11 65.2 °F 64.3 °F 30.09 in Calm   2.0 mph 97 % 0.37 in
01:16 65.1 °F 64.2 °F 30.09 in Calm   2.0 mph 97 % 0.39 in
01:21 65.1 °F 64.2 °F 30.09 in Calm   2.0 mph 97 % 0.42 in
01:26 65.1 °F 64.2 °F 30.10 in West 2.0 mph 2.0 mph 97 % 0.43 in
01:31 65.2 °F 64.3 °F 30.10 in Calm   3.0 mph 97 % 0.46 in
01:36 65.2 °F 64.3 °F 30.11 in West 2.0 mph 4.0 mph 97 % 0.48 in
01:41 65.2 °F 64.3 °F 30.11 in Calm   4.0 mph 97 % 0.51 in
01:46 65.1 °F 64.5 °F 30.10 in Calm   4.0 mph 98 % 0.44 in
01:51 65.1 °F 64.5 °F 30.11 in West 1.0 mph 4.0 mph 98 % 0.42 in
01:56 65.0 °F 64.4 °F 30.10 in Calm   1.0 mph 98 % 0.40 in
02:01 65.0 °F 64.4 °F 30.10 in Calm   2.0 mph 98 % 0.37 in
02:06 65.0 °F 64.4 °F 30.09 in East 1.0 mph 5.0 mph 98 % 0.30 in
02:11 65.0 °F 64.4 °F 30.09 in Calm   5.0 mph 98 % 0.28 in
02:16 65.0 °F 64.4 °F 30.10 in Calm   5.0 mph 98 % 0.26 in
02:17 65.0 °F 64.4 °F 30.10 in Calm   5.0 mph 98 % 0.26 in
02:22 65.0 °F 64.4 °F 30.10 in East 5.0 mph 8.0 mph 98 % 0.23 in
02:27 65.0 °F 64.4 °F 30.09 in Calm   8.0 mph 98 % 0.20 in
02:32 65.1 °F 64.5 °F 30.10 in Calm   8.0 mph 98 % 0.17 in
02:37 65.2 °F 64.6 °F 30.10 in Calm   8.0 mph 98 % 0.14 in
02:42 65.2 °F 64.6 °F 30.10 in Calm   3.0 mph 98 % 0.09 in
02:47 65.2 °F 64.6 °F 30.10 in Calm   3.0 mph 98 % 0.05 in
02:52 65.2 °F 64.6 °F 30.10 in Calm   3.0 mph 98 % 0.03 in
02:57 65.2 °F 64.6 °F 30.11 in ENE 4.0 mph 11.0 mph 98 % 0.02 in
03:02 65.2 °F 64.6 °F 30.10 in Calm   11.0 mph 98 % 0.01 in
03:07 65.2 °F 64.6 °F 30.10 in Calm   11.0 mph 98 % 0.01 in
03:12 65.2 °F 64.6 °F 30.11 in North 4.0 mph 11.0 mph 98 % 0.00 in
03:17 65.2 °F 64.6 °F 30.11 in Calm   5.0 mph 98 % 0.00 in
03:22 65.2 °F 64.6 °F 30.11 in WNW 1.0 mph 4.0 mph 98 % 0.00 in
03:27 65.2 °F 64.6 °F 30.11 in Calm   4.0 mph 98 % 0.00 in
03:32 65.2 °F 64.6 °F 30.11 in WNW 1.0 mph 4.0 mph 98 % 0.00 in
03:37 65.2 °F 64.6 °F 30.11 in Calm   6.0 mph 98 % 0.00 in
03:42 65.1 °F 64.5 °F 30.12 in Calm   6.0 mph 98 % 0.00 in
03:47 65.1 °F 64.5 °F 30.12 in Calm   6.0 mph 98 % 0.00 in
03:52 64.9 °F 64.3 °F 30.12 in Calm   6.0 mph 98 % 0.00 in
03:57 64.8 °F 64.2 °F 30.12 in Calm   9.0 mph 98 % 0.00 in
04:02 64.6 °F 64.0 °F 30.12 in WNW 1.0 mph 9.0 mph 98 % 0.00 in
04:07 64.5 °F 63.9 °F 30.12 in ESE 1.0 mph 9.0 mph 98 % 0.00 in
04:12 64.4 °F 63.8 °F 30.13 in Calm   9.0 mph 98 % 0.00 in
04:17 64.3 °F 63.7 °F 30.13 in East 1.0 mph 5.0 mph 98 % 0.00 in
04:22 64.3 °F 63.7 °F 30.13 in WNW 3.0 mph 5.0 mph 98 % 0.00 in
04:27 64.3 °F 63.7 °F 30.13 in Calm   5.0 mph 98 % 0.00 in
04:32 64.3 °F 63.7 °F 30.13 in WNW 3.0 mph 4.0 mph 98 % 0.00 in
04:37 64.3 °F 63.7 °F 30.13 in Calm   4.0 mph 98 % 0.00 in
04:42 64.2 °F 63.6 °F 30.13 in Calm   5.0 mph 98 % 0.00 in
04:52 64.2 °F 63.6 °F 30.13 in Calm   5.0 mph 98 % 0.00 in
04:57 64.2 °F 63.6 °F 30.13 in NE 1.0 mph 5.0 mph 98 % 0.00 in
05:02 64.1 °F 63.5 °F 30.13 in WNW 3.0 mph 7.0 mph 98 % 0.00 in
05:07 64.2 °F 63.6 °F 30.13 in NW 2.0 mph 7.0 mph 98 % 0.00 in
05:12 64.1 °F 63.5 °F 30.14 in WNW 3.0 mph 7.0 mph 98 % 0.00 in
05:17 64.1 °F 63.5 °F 30.14 in Calm   7.0 mph 98 % 0.00 in
05:22 64.1 °F 63.5 °F 30.14 in WNW 4.0 mph 4.0 mph 98 % 0.00 in
05:27 64.1 °F 63.5 °F 30.14 in NE 1.0 mph 7.0 mph 98 % 0.00 in
05:32 64.0 °F 63.4 °F 30.15 in Calm   9.0 mph 98 % 0.00 in
05:37 64.1 °F 63.5 °F 30.15 in WNW 2.0 mph 9.0 mph 98 % 0.00 in
05:42 64.1 °F 63.5 °F 30.15 in East 5.0 mph 9.0 mph 98 % 0.00 in
05:47 64.1 °F 63.5 °F 30.15 in ENE 5.0 mph 9.0 mph 98 % 0.00 in
05:52 64.1 °F 63.5 °F 30.15 in Calm   7.0 mph 98 % 0.00 in
05:57 64.1 °F 63.5 °F 30.15 in Calm   7.0 mph 98 % 0.00 in
06:02 64.0 °F 63.4 °F 30.15 in Calm   8.0 mph 98 % 0.00 in
06:07 63.9 °F 63.3 °F 30.15 in ENE 2.0 mph 8.0 mph 98 % 0.00 in
06:12 63.7 °F 62.8 °F 30.16 in SE 5.0 mph 8.0 mph 97 % 0.00 in
06:17 63.5 °F 62.6 °F 30.15 in Calm   8.0 mph 97 % 0.00 in
06:22 63.4 °F 62.5 °F 30.15 in SE 1.0 mph 8.0 mph 97 % 0.00 in
06:27 63.4 °F 62.5 °F 30.15 in East 3.0 mph 7.0 mph 97 % 0.00 in
06:32 63.3 °F 62.4 °F 30.16 in Calm   7.0 mph 97 % 0.00 in
06:37 63.2 °F 62.3 °F 30.16 in Calm   9.0 mph 97 % 0.00 in
06:42 63.2 °F 62.3 °F 30.16 in ESE 1.0 mph 9.0 mph 97 % 0.00 in
06:47 63.0 °F 61.8 °F 30.16 in Calm   12.0 mph 96 % 0.00 in
06:52 62.9 °F 61.7 °F 30.17 in East 1.0 mph 12.0 mph 96 % 0.00 in
06:57 62.8 °F 61.6 °F 30.17 in East 1.0 mph 12.0 mph 96 % 0.00 in
07:02 62.7 °F 61.5 °F 30.17 in ESE 1.0 mph 12.0 mph 96 % 0.00 in
07:07 62.6 °F 61.4 °F 30.17 in ESE 8.0 mph 10.0 mph 96 % 0.00 in
07:12 62.6 °F 61.4 °F 30.18 in Calm   10.0 mph 96 % 0.00 in
07:17 62.6 °F 61.4 °F 30.18 in Calm   10.0 mph 96 % 0.00 in
07:22 62.6 °F 61.4 °F 30.19 in East 2.0 mph 10.0 mph 96 % 0.00 in
07:27 62.7 °F 61.5 °F 30.19 in Calm   8.0 mph 96 % 0.00 in
07:32 62.8 °F 61.6 °F 30.19 in East 5.0 mph 8.0 mph 96 % 0.00 in
07:37 62.9 °F 61.7 °F 30.20 in Calm   8.0 mph 96 % 0.00 in
07:42 63.0 °F 61.8 °F 30.20 in East 1.0 mph 8.0 mph 96 % 0.00 in
07:52 63.1 °F 61.9 °F 30.21 in NW 4.0 mph 5.0 mph 96 % 0.00 in
07:57 63.1 °F 61.6 °F 30.21 in WNW 3.0 mph 8.0 mph 95 % 0.00 in
08:02 63.1 °F 61.6 °F 30.22 in NNE 2.0 mph 8.0 mph 95 % 0.00 in
08:07 63.1 °F 61.6 °F 30.22 in Calm   13.0 mph 95 % 0.00 in
08:12 63.1 °F 61.3 °F 30.23 in Calm   13.0 mph 94 % 0.00 in
08:17 63.0 °F 61.2 °F 30.23 in WNW 2.0 mph 12.0 mph 94 % 0.00 in
08:22 62.9 °F 61.1 °F 30.23 in Calm   12.0 mph 94 % 0.00 in
08:27 62.8 °F 61.0 °F 30.22 in ENE 1.0 mph 11.0 mph 94 % 0.00 in
08:32 62.8 °F 61.0 °F 30.22 in East 5.0 mph 17.0 mph 94 % 0.00 in
08:37 62.8 °F 60.7 °F 30.23 in ESE 1.0 mph 17.0 mph 93 % 0.00 in
08:42 62.9 °F 60.8 °F 30.23 in WNW 2.0 mph 17.0 mph 93 % 0.00 in
08:47 62.9 °F 60.8 °F 30.23 in Calm   17.0 mph 93 % 0.00 in
08:52 62.9 °F 60.5 °F 30.23 in East 5.0 mph 17.0 mph 92 % 0.00 in
08:57 63.0 °F 60.6 °F 30.23 in NNE 2.0 mph 17.0 mph 92 % 0.00 in
09:02 63.0 °F 60.6 °F 30.23 in ESE 2.0 mph 17.0 mph 92 % 0.00 in
09:07 63.0 °F 60.6 °F 30.23 in Calm   14.0 mph 92 % 0.00 in
09:12 63.1 °F 60.7 °F 30.23 in Calm   14.0 mph 92 % 0.00 in
09:17 63.1 °F 60.7 °F 30.23 in ESE 2.0 mph 14.0 mph 92 % 0.00 in
09:22 63.0 °F 60.3 °F 30.24 in NW 2.0 mph 14.0 mph 91 % 0.00 in
09:27 63.0 °F 60.6 °F 30.24 in ESE 2.0 mph 13.0 mph 92 % 0.00 in
09:32 63.0 °F 60.3 °F 30.25 in NE 2.0 mph 13.0 mph 91 % 0.00 in
09:37 62.9 °F 60.2 °F 30.25 in WNW 1.0 mph 8.0 mph 91 % 0.00 in
09:42 62.9 °F 60.2 °F 30.25 in West 5.0 mph 11.0 mph 91 % 0.00 in
09:47 62.8 °F 60.1 °F 30.25 in Calm   11.0 mph 91 % 0.00 in
09:52 62.9 °F 60.2 °F 30.26 in ENE 1.0 mph 11.0 mph 91 % 0.00 in
09:57 62.7 °F 60.0 °F 30.26 in ENE 1.0 mph 9.0 mph 91 % 0.00 in
10:02 62.6 °F 59.9 °F 30.27 in WNW 1.0 mph 9.0 mph 91 % 0.00 in
10:07 62.5 °F 59.8 °F 30.27 in WNW 1.0 mph 9.0 mph 91 % 0.00 in
10:08 62.5 °F 59.8 °F 30.27 in East 2.0 mph 9.0 mph 91 % 0.00 in
10:13 62.4 °F 59.7 °F 30.27 in NE 3.0 mph 9.0 mph 91 % 0.00 in
10:18 62.3 °F 59.6 °F 30.27 in East 1.0 mph 7.0 mph 91 % 0.00 in
10:23 62.2 °F 59.5 °F 30.27 in East 1.0 mph 7.0 mph 91 % 0.00 in
10:28 62.1 °F 59.4 °F 30.27 in Calm   11.0 mph 91 % 0.00 in
10:33 62.0 °F 59.3 °F 30.27 in ENE 2.0 mph 11.0 mph 91 % 0.00 in
10:38 61.9 °F 59.2 °F 30.27 in Calm   11.0 mph 91 % 0.00 in
10:43 61.9 °F 59.2 °F 30.27 in East 2.0 mph 11.0 mph 91 % 0.00 in
10:48 61.8 °F 59.1 °F 30.27 in ENE 3.0 mph 11.0 mph 91 % 0.00 in
10:53 61.8 °F 59.1 °F 30.27 in Calm   11.0 mph 91 % 0.00 in
10:58 61.8 °F 59.4 °F 30.27 in Calm   11.0 mph 92 % 0.00 in
11:03 61.8 °F 59.1 °F 30.27 in SE 2.0 mph 9.0 mph 91 % 0.00 in
11:08 61.8 °F 59.1 °F 30.27 in East 1.0 mph 8.0 mph 91 % 0.00 in
11:13 61.9 °F 59.2 °F 30.27 in ESE 1.0 mph 8.0 mph 91 % 0.00 in
11:15 61.9 °F 59.2 °F 30.28 in West 3.0 mph 11.0 mph 91 % 0.00 in
11:20 61.9 °F 58.9 °F 30.28 in Calm   11.0 mph 90 % 0.00 in
11:25 61.9 °F 58.9 °F 30.28 in ENE 8.0 mph 11.0 mph 90 % 0.00 in
11:30 61.9 °F 58.9 °F 30.28 in NNE 4.0 mph 10.0 mph 90 % 0.00 in
11:35 61.9 °F 58.9 °F 30.28 in West 2.0 mph 10.0 mph 90 % 0.00 in
11:36 61.9 °F 59.5 °F 30.28 in ESE 4.0 mph 10.0 mph 92 % 0.00 in
11:41 61.9 °F 58.9 °F 30.28 in Calm   10.0 mph 90 % 0.00 in
11:46 62.0 °F 59.0 °F 30.29 in WNW 1.0 mph 10.0 mph 90 % 0.00 in
11:51 61.9 °F 58.9 °F 30.29 in Calm   10.0 mph 90 % 0.00 in
11:56 61.9 °F 58.9 °F 30.29 in Calm   10.0 mph 90 % 0.00 in
12:01 62.0 °F 59.0 °F 30.29 in NNE 1.0 mph 10.0 mph 90 % 0.00 in
12:06 62.0 °F 59.0 °F 30.29 in East 2.0 mph 6.0 mph 90 % 0.00 in
12:11 62.0 °F 59.0 °F 30.29 in East 1.0 mph 6.0 mph 90 % 0.00 in
12:16 62.0 °F 59.0 °F 30.29 in Calm   6.0 mph 90 % 0.00 in
12:21 62.0 °F 59.0 °F 30.29 in Calm   9.0 mph 90 % 0.00 in
12:26 62.0 °F 59.0 °F 30.29 in West 2.0 mph 9.0 mph 90 % 0.00 in
12:31 61.9 °F 58.9 °F 30.29 in Calm   9.0 mph 90 % 0.00 in
12:36 61.9 °F 58.9 °F 30.29 in Calm   9.0 mph 90 % 0.00 in
12:41 62.0 °F 59.0 °F 30.29 in Calm   6.0 mph 90 % 0.00 in
12:46 61.9 °F 58.9 °F 30.29 in Calm   7.0 mph 90 % 0.00 in
12:51 61.9 °F 58.6 °F 30.29 in East 2.0 mph 9.0 mph 89 % 0.00 in
12:56 62.0 °F 58.7 °F 30.29 in Calm   9.0 mph 89 % 0.00 in
13:01 62.0 °F 58.7 °F 30.29 in NE 2.0 mph 11.0 mph 89 % 0.00 in
13:06 62.0 °F 58.7 °F 30.29 in Calm   11.0 mph 89 % 0.00 in
13:11 62.0 °F 58.7 °F 30.29 in ESE 2.0 mph 11.0 mph 89 % 0.00 in
13:16 62.1 °F 58.8 °F 30.28 in Calm   11.0 mph 89 % 0.00 in
13:21 62.1 °F 58.8 °F 30.28 in Calm   9.0 mph 89 % 0.00 in
13:26 62.1 °F 58.8 °F 30.28 in WNW 2.0 mph 9.0 mph 89 % 0.00 in
13:31 62.2 °F 58.9 °F 30.28 in Calm   9.0 mph 89 % 0.00 in
13:36 62.2 °F 58.9 °F 30.28 in WNW 7.0 mph 7.0 mph 89 % 0.00 in
13:41 62.2 °F 58.9 °F 30.28 in Calm   7.0 mph 89 % 0.00 in
13:46 62.3 °F 59.0 °F 30.28 in West 1.0 mph 7.0 mph 89 % 0.00 in
13:51 62.3 °F 58.7 °F 30.28 in ENE 1.0 mph 8.0 mph 88 % 0.00 in
13:56 62.3 °F 59.0 °F 30.28 in East 3.0 mph 8.0 mph 89 % 0.00 in
14:01 62.3 °F 59.0 °F 30.28 in Calm   8.0 mph 89 % 0.00 in
14:06 62.2 °F 58.9 °F 30.28 in ESE 2.0 mph 9.0 mph 89 % 0.00 in
14:11 62.1 °F 58.8 °F 30.28 in NE 2.0 mph 9.0 mph 89 % 0.00 in
14:16 62.0 °F 58.7 °F 30.28 in East 1.0 mph 9.0 mph 89 % 0.00 in
14:21 62.1 °F 59.1 °F 30.28 in Calm   9.0 mph 90 % 0.00 in
14:26 62.0 °F 59.0 °F 30.28 in Calm   9.0 mph 90 % 0.00 in
14:31 61.9 °F 58.9 °F 30.28 in ENE 1.0 mph 9.0 mph 90 % 0.00 in
14:36 61.7 °F 59.0 °F 30.28 in ESE 1.0 mph 8.0 mph 91 % 0.00 in
14:41 61.6 °F 59.2 °F 30.28 in West 1.0 mph 7.0 mph 92 % 0.00 in
14:46 61.4 °F 59.0 °F 30.28 in ENE 1.0 mph 7.0 mph 92 % 0.00 in
14:51 61.3 °F 58.9 °F 30.28 in East 1.0 mph 7.0 mph 92 % 0.00 in
14:56 61.3 °F 59.2 °F 30.28 in Calm   6.0 mph 93 % 0.00 in
15:01 61.4 °F 59.3 °F 30.28 in ESE 3.0 mph 6.0 mph 93 % 0.00 in
15:06 61.4 °F 59.3 °F 30.28 in East 1.0 mph 6.0 mph 93 % 0.00 in
15:11 61.4 °F 59.6 °F 30.28 in East 1.0 mph 3.0 mph 94 % 0.00 in
15:16 61.3 °F 59.5 °F 30.28 in Calm   3.0 mph 94 % 0.00 in
15:21 61.3 °F 59.5 °F 30.28 in Calm   10.0 mph 94 % 0.00 in
15:26 61.3 °F 59.5 °F 30.29 in Calm   10.0 mph 94 % 0.00 in
15:31 61.2 °F 59.4 °F 30.29 in ENE 2.0 mph 9.0 mph 94 % 0.00 in
15:36 61.3 °F 59.8 °F 30.29 in East 1.0 mph 6.0 mph 95 % 0.01 in
15:41 61.1 °F 59.3 °F 30.29 in Calm   5.0 mph 94 % 0.01 in
15:46 61.2 °F 59.7 °F 30.29 in Calm   5.0 mph 95 % 0.01 in
15:51 61.1 °F 59.6 °F 30.29 in NE 6.0 mph 6.0 mph 95 % 0.01 in
15:56 60.9 °F 59.4 °F 30.29 in East 2.0 mph 9.0 mph 95 % 0.02 in
16:01 60.7 °F 59.2 °F 30.29 in Calm   9.0 mph 95 % 0.02 in
16:06 60.6 °F 59.1 °F 30.29 in West 2.0 mph 9.0 mph 95 % 0.02 in
16:11 60.6 °F 59.4 °F 30.29 in Calm   7.0 mph 96 % 0.02 in
16:16 60.5 °F 59.3 °F 30.29 in Calm   7.0 mph 96 % 0.02 in
16:21 60.5 °F 59.3 °F 30.29 in Calm   4.0 mph 96 % 0.02 in
16:26 60.5 °F 59.3 °F 30.29 in East 1.0 mph 5.0 mph 96 % 0.02 in
16:31 60.5 °F 59.3 °F 30.29 in Calm   5.0 mph 96 % 0.02 in
16:36 60.5 °F 59.3 °F 30.29 in Calm   5.0 mph 96 % 0.01 in
16:41 60.5 °F 59.3 °F 30.29 in Calm   5.0 mph 96 % 0.01 in
16:46 60.6 °F 59.4 °F 30.29 in Calm   5.0 mph 96 % 0.01 in
16:51 60.4 °F 59.2 °F 30.30 in Calm   3.0 mph 96 % 0.01 in
16:56 60.4 °F 59.2 °F 30.30 in Calm   3.0 mph 96 % 0.00 in
17:01 60.2 °F 59.0 °F 30.30 in Calm   3.0 mph 96 % 0.00 in
17:06 60.2 °F 59.0 °F 30.30 in Calm   3.0 mph 96 % 0.00 in
17:11 60.0 °F 58.8 °F 30.30 in Calm   6.0 mph 96 % 0.00 in
17:16 60.0 °F 58.8 °F 30.30 in Calm   6.0 mph 96 % 0.00 in
17:21 59.8 °F 58.6 °F 30.30 in Calm   5.0 mph 96 % 0.00 in
17:26 59.8 °F 58.6 °F 30.30 in WNW 2.0 mph 6.0 mph 96 % 0.00 in
17:31 59.8 °F 58.6 °F 30.30 in East 2.0 mph 6.0 mph 96 % 0.00 in
17:36 59.8 °F 58.6 °F 30.30 in Calm   7.0 mph 96 % 0.00 in
17:41 59.8 °F 58.6 °F 30.31 in ENE 1.0 mph 7.0 mph 96 % 0.00 in
17:46 59.9 °F 58.7 °F 30.31 in East 6.0 mph 7.0 mph 96 % 0.00 in
17:51 59.8 °F 58.6 °F 30.31 in East 1.0 mph 6.0 mph 96 % 0.00 in
17:56 59.7 °F 58.5 °F 30.31 in Calm   6.0 mph 96 % 0.00 in
18:01 59.7 °F 58.5 °F 30.32 in WNW 1.0 mph 6.0 mph 96 % 0.00 in
18:06 59.6 °F 58.1 °F 30.32 in Calm   5.0 mph 95 % 0.00 in
18:11 59.6 °F 58.1 °F 30.32 in ESE 1.0 mph 5.0 mph 95 % 0.00 in
18:16 59.5 °F 58.0 °F 30.32 in Calm   7.0 mph 95 % 0.00 in
18:21 59.5 °F 58.3 °F 30.32 in ENE 1.0 mph 7.0 mph 96 % 0.00 in
18:26 59.4 °F 58.2 °F 30.32 in East 3.0 mph 7.0 mph 96 % 0.00 in
18:31 59.3 °F 58.1 °F 30.32 in Calm   9.0 mph 96 % 0.01 in
18:36 59.2 °F 58.0 °F 30.32 in ENE 1.0 mph 9.0 mph 96 % 0.01 in
18:41 59.1 °F 57.9 °F 30.33 in East 1.0 mph 9.0 mph 96 % 0.01 in
18:46 59.0 °F 57.8 °F 30.33 in NE 1.0 mph 9.0 mph 96 % 0.01 in
18:51 58.9 °F 57.7 °F 30.33 in Calm   6.0 mph 96 % 0.01 in
18:56 58.8 °F 57.6 °F 30.33 in Calm   7.0 mph 96 % 0.01 in
19:01 58.7 °F 57.5 °F 30.33 in East 5.0 mph 7.0 mph 96 % 0.01 in
19:06 58.7 °F 57.5 °F 30.33 in ESE 4.0 mph 10.0 mph 96 % 0.01 in
19:11 58.5 °F 57.3 °F 30.33 in Calm   10.0 mph 96 % 0.01 in
19:16 58.4 °F 57.2 °F 30.33 in Calm   10.0 mph 96 % 0.01 in
19:21 58.4 °F 56.9 °F 30.34 in Calm   10.0 mph 95 % 0.01 in
19:26 58.4 °F 57.2 °F 30.34 in Calm   7.0 mph 96 % 0.01 in
19:31 58.4 °F 57.2 °F 30.34 in Calm   7.0 mph 96 % 0.00 in
19:36 58.5 °F 57.3 °F 30.34 in Calm   5.0 mph 96 % 0.00 in
19:41 58.4 °F 57.2 °F 30.34 in Calm   5.0 mph 96 % 0.00 in
19:46 58.4 °F 57.2 °F 30.34 in Calm   7.0 mph 96 % 0.00 in
19:51 58.4 °F 57.2 °F 30.34 in Calm   7.0 mph 96 % 0.00 in
19:56 58.5 °F 57.3 °F 30.34 in Calm   7.0 mph 96 % 0.00 in
20:01 58.5 °F 57.0 °F 30.34 in Calm   7.0 mph 95 % 0.00 in
20:06 58.4 °F 56.9 °F 30.35 in Calm   2.0 mph 95 % 0.00 in
20:11 58.4 °F 56.9 °F 30.35 in Calm   2.0 mph 95 % 0.00 in
20:16 58.4 °F 56.9 °F 30.35 in ENE 2.0 mph 2.0 mph 95 % 0.00 in
20:21 58.5 °F 56.7 °F 30.35 in Calm   6.0 mph 94 % 0.00 in
20:26 58.5 °F 56.7 °F 30.35 in Calm   6.0 mph 94 % 0.00 in
20:31 58.6 °F 56.8 °F 30.35 in Calm   6.0 mph 94 % 0.00 in
20:36 58.6 °F 56.5 °F 30.35 in Calm   6.0 mph 93 % 0.00 in
20:41 58.6 °F 56.5 °F 30.35 in East 1.0 mph 6.0 mph 93 % 0.00 in
20:46 58.6 °F 56.2 °F 30.35 in Calm   6.0 mph 92 % 0.00 in
20:51 58.7 °F 56.3 °F 30.35 in Calm   6.0 mph 92 % 0.00 in
20:56 58.7 °F 56.3 °F 30.35 in East 1.0 mph 5.0 mph 92 % 0.00 in
21:01 58.7 °F 56.0 °F 30.35 in Calm   5.0 mph 91 % 0.00 in
21:06 58.8 °F 56.1 °F 30.36 in Calm   5.0 mph 91 % 0.00 in
21:11 58.9 °F 55.9 °F 30.36 in Calm   5.0 mph 90 % 0.00 in
21:16 58.9 °F 55.6 °F 30.35 in Calm   7.0 mph 89 % 0.00 in
21:21 59.0 °F 55.7 °F 30.35 in Calm   7.0 mph 89 % 0.00 in
21:26 59.0 °F 55.4 °F 30.35 in Calm   7.0 mph 88 % 0.00 in
21:31 59.1 °F 55.2 °F 30.35 in East 1.0 mph 9.0 mph 87 % 0.00 in
21:36 59.1 °F 55.2 °F 30.35 in ESE 1.0 mph 11.0 mph 87 % 0.00 in
21:41 59.1 °F 55.2 °F 30.35 in East 1.0 mph 11.0 mph 87 % 0.00 in
21:46 59.1 °F 55.2 °F 30.35 in ENE 1.0 mph 11.0 mph 87 % 0.00 in
21:51 59.2 °F 55.0 °F 30.36 in ENE 1.0 mph 11.0 mph 86 % 0.00 in
21:56 59.3 °F 55.1 °F 30.36 in Calm   7.0 mph 86 % 0.00 in
22:01 59.4 °F 55.2 °F 30.36 in Calm   8.0 mph 86 % 0.00 in
22:06 59.4 °F 55.2 °F 30.36 in Calm   8.0 mph 86 % 0.00 in
22:11 59.5 °F 55.3 °F 30.36 in Calm   8.0 mph 86 % 0.00 in
22:16 59.5 °F 55.3 °F 30.36 in West 1.0 mph 8.0 mph 86 % 0.00 in
22:21 59.5 °F 55.3 °F 30.36 in Calm   7.0 mph 86 % 0.00 in
22:26 59.5 °F 55.0 °F 30.36 in Calm   7.0 mph 85 % 0.00 in
22:31 59.4 °F 54.9 °F 30.36 in WNW 1.0 mph 7.0 mph 85 % 0.00 in
22:36 59.4 °F 54.9 °F 30.36 in Calm   7.0 mph 85 % 0.00 in
22:41 59.5 °F 55.0 °F 30.36 in East 2.0 mph 7.0 mph 85 % 0.00 in
22:46 59.5 °F 55.0 °F 30.35 in ENE 1.0 mph 7.0 mph 85 % 0.00 in
22:51 59.4 °F 55.2 °F 30.36 in NNE 1.0 mph 7.0 mph 86 % 0.00 in
22:56 59.5 °F 55.0 °F 30.36 in ESE 2.0 mph 10.0 mph 85 % 0.00 in
23:01 59.5 °F 55.3 °F 30.35 in ENE 1.0 mph 10.0 mph 86 % 0.00 in
23:03 59.4 °F 54.9 °F 30.35 in Calm   10.0 mph 85 % 0.00 in
23:08 59.4 °F 54.9 °F 30.35 in ESE 1.0 mph 10.0 mph 85 % 0.00 in
23:13 59.4 °F 55.2 °F 30.35 in ENE 1.0 mph 10.0 mph 86 % 0.00 in
23:18 59.4 °F 54.9 °F 30.35 in Calm   6.0 mph 85 % 0.00 in
23:23 59.4 °F 54.9 °F 30.36 in Calm   6.0 mph 85 % 0.00 in
23:28 59.3 °F 54.8 °F 30.36 in Calm   6.0 mph 85 % 0.00 in
23:33 59.4 °F 54.9 °F 30.35 in Calm   5.0 mph 85 % 0.00 in
23:38 59.4 °F 54.9 °F 30.35 in Calm   5.0 mph 85 % 0.00 in
23:43 59.4 °F 54.9 °F 30.35 in Calm   5.0 mph 85 % 0.00 in
23:48 59.3 °F 54.8 °F 30.36 in Calm   5.0 mph 85 % 0.00 in
23:53 59.3 °F 54.8 °F 30.36 in East 1.0 mph 5.0 mph 85 % 0.00 in
23:58 59.4 °F 54.9 °F 30.36 in North 2.0 mph 6.0 mph 85 % 0.00 in
MarylandWx.com
Compliments of Weather Underground - 6.75 mb